sensor_id;sensor_type;location;lat;lon;timestamp;P1;durP1;ratioP1;P2;durP2;ratioP2
28960;SDS011;16068;42.896;20.868;2022-09-01T00:01:54;16.58;;;12.07;;
28960;SDS011;16068;42.896;20.868;2022-09-01T00:04:40;14.50;;;11.70;;
28960;SDS011;16068;42.896;20.868;2022-09-01T00:07:28;17.80;;;11.88;;
28960;SDS011;16068;42.896;20.868;2022-09-01T00:10:15;20.58;;;12.23;;
28960;SDS011;16068;42.896;20.868;2022-09-01T00:13:01;17.38;;;12.68;;
28960;SDS011;16068;42.896;20.868;2022-09-01T00:23:05;18.33;;;11.93;;
28960;SDS011;16068;42.896;20.868;2022-09-01T00:25:52;13.60;;;11.40;;
28960;SDS011;16068;42.896;20.868;2022-09-01T00:28:39;18.02;;;11.63;;
28960;SDS011;16068;42.896;20.868;2022-09-01T00:31:27;13.23;;;11.35;;
28960;SDS011;16068;42.896;20.868;2022-09-01T00:34:14;17.52;;;11.50;;
28960;SDS011;16068;42.896;20.868;2022-09-01T00:37:01;17.55;;;12.15;;
28960;SDS011;16068;42.896;20.868;2022-09-01T00:39:47;15.38;;;11.55;;
28960;SDS011;16068;42.896;20.868;2022-09-01T00:42:33;20.35;;;12.40;;
28960;SDS011;16068;42.896;20.868;2022-09-01T00:45:20;17.65;;;12.57;;
28960;SDS011;16068;42.896;20.868;2022-09-01T00:48:07;15.30;;;11.40;;
28960;SDS011;16068;42.896;20.868;2022-09-01T00:50:55;15.23;;;11.85;;
28960;SDS011;16068;42.896;20.868;2022-09-01T00:53:41;16.75;;;11.38;;
28960;SDS011;16068;42.896;20.868;2022-09-01T00:56:28;16.98;;;11.88;;
28960;SDS011;16068;42.896;20.868;2022-09-01T00:59:15;18.83;;;11.30;;
28960;SDS011;16068;42.896;20.868;2022-09-01T01:02:02;14.65;;;11.30;;
28960;SDS011;16068;42.896;20.868;2022-09-01T01:04:48;16.58;;;11.88;;
28960;SDS011;16068;42.896;20.868;2022-09-01T01:07:34;22.20;;;12.15;;
28960;SDS011;16068;42.896;20.868;2022-09-01T01:10:23;15.07;;;11.45;;
28960;SDS011;16068;42.896;20.868;2022-09-01T01:13:12;17.83;;;11.60;;
28960;SDS011;16068;42.896;20.868;2022-09-01T01:16:01;15.27;;;11.82;;
28960;SDS011;16068;42.896;20.868;2022-09-01T01:18:51;15.98;;;12.35;;
28960;SDS011;16068;42.896;20.868;2022-09-01T01:21:38;14.63;;;12.40;;
28960;SDS011;16068;42.896;20.868;2022-09-01T01:24:47;16.40;;;12.25;;
28960;SDS011;16068;42.896;20.868;2022-09-01T01:27:33;16.10;;;11.50;;
28960;SDS011;16068;42.896;20.868;2022-09-01T01:30:27;16.60;;;11.63;;
28960;SDS011;16068;42.896;20.868;2022-09-01T01:33:25;16.55;;;12.20;;
28960;SDS011;16068;42.896;20.868;2022-09-01T01:36:23;14.13;;;11.02;;
28960;SDS011;16068;42.896;20.868;2022-09-01T01:39:23;17.80;;;12.75;;
28960;SDS011;16068;42.896;20.868;2022-09-01T01:42:13;13.98;;;11.82;;
28960;SDS011;16068;42.896;20.868;2022-09-01T01:44:59;15.25;;;12.05;;
28960;SDS011;16068;42.896;20.868;2022-09-01T01:47:46;18.92;;;11.27;;
28960;SDS011;16068;42.896;20.868;2022-09-01T01:50:42;13.13;;;10.82;;
28960;SDS011;16068;42.896;20.868;2022-09-01T01:53:30;15.18;;;11.73;;
28960;SDS011;16068;42.896;20.868;2022-09-01T01:56:16;15.48;;;12.18;;
28960;SDS011;16068;42.896;20.868;2022-09-01T01:59:03;14.75;;;11.98;;
28960;SDS011;16068;42.896;20.868;2022-09-01T02:01:52;12.32;;;10.98;;
28960;SDS011;16068;42.896;20.868;2022-09-01T02:04:39;14.18;;;11.43;;
28960;SDS011;16068;42.896;20.868;2022-09-01T02:07:28;16.60;;;12.13;;
28960;SDS011;16068;42.896;20.868;2022-09-01T02:10:17;16.42;;;11.90;;
28960;SDS011;16068;42.896;20.868;2022-09-01T02:13:03;16.95;;;11.75;;
28960;SDS011;16068;42.896;20.868;2022-09-01T02:15:52;15.70;;;12.13;;
28960;SDS011;16068;42.896;20.868;2022-09-01T02:18:40;17.08;;;11.52;;
28960;SDS011;16068;42.896;20.868;2022-09-01T02:21:28;13.85;;;11.75;;
28960;SDS011;16068;42.896;20.868;2022-09-01T02:24:15;13.77;;;11.60;;
28960;SDS011;16068;42.896;20.868;2022-09-01T02:27:00;15.60;;;11.60;;
28960;SDS011;16068;42.896;20.868;2022-09-01T02:29:50;13.05;;;11.73;;
28960;SDS011;16068;42.896;20.868;2022-09-01T02:32:38;22.52;;;12.15;;
28960;SDS011;16068;42.896;20.868;2022-09-01T02:35:26;16.95;;;12.15;;
28960;SDS011;16068;42.896;20.868;2022-09-01T02:38:23;15.60;;;12.45;;
28960;SDS011;16068;42.896;20.868;2022-09-01T02:41:14;14.65;;;12.25;;
28960;SDS011;16068;42.896;20.868;2022-09-01T02:44:04;14.10;;;11.80;;
28960;SDS011;16068;42.896;20.868;2022-09-01T02:46:56;17.30;;;11.98;;
28960;SDS011;16068;42.896;20.868;2022-09-01T02:49:43;16.48;;;11.55;;
28960;SDS011;16068;42.896;20.868;2022-09-01T02:52:30;20.60;;;12.27;;
28960;SDS011;16068;42.896;20.868;2022-09-01T02:55:22;15.50;;;12.68;;
28960;SDS011;16068;42.896;20.868;2022-09-01T02:58:09;14.32;;;11.35;;
28960;SDS011;16068;42.896;20.868;2022-09-01T03:00:59;13.70;;;11.98;;
28960;SDS011;16068;42.896;20.868;2022-09-01T03:03:48;16.20;;;10.70;;
28960;SDS011;16068;42.896;20.868;2022-09-01T03:06:35;14.85;;;11.82;;
28960;SDS011;16068;42.896;20.868;2022-09-01T03:09:22;13.18;;;11.73;;
28960;SDS011;16068;42.896;20.868;2022-09-01T03:12:08;14.65;;;11.63;;
28960;SDS011;16068;42.896;20.868;2022-09-01T03:15:00;14.18;;;11.95;;
28960;SDS011;16068;42.896;20.868;2022-09-01T03:17:47;14.13;;;10.63;;
28960;SDS011;16068;42.896;20.868;2022-09-01T03:20:38;15.07;;;10.88;;
28960;SDS011;16068;42.896;20.868;2022-09-01T03:23:28;13.88;;;12.38;;
28960;SDS011;16068;42.896;20.868;2022-09-01T03:26:16;17.23;;;11.00;;
28960;SDS011;16068;42.896;20.868;2022-09-01T03:29:07;14.38;;;10.85;;
28960;SDS011;16068;42.896;20.868;2022-09-01T03:32:07;15.20;;;11.32;;
28960;SDS011;16068;42.896;20.868;2022-09-01T03:35:13;12.60;;;11.25;;
28960;SDS011;16068;42.896;20.868;2022-09-01T03:38:09;16.00;;;10.75;;
28960;SDS011;16068;42.896;20.868;2022-09-01T03:40:58;13.00;;;10.60;;
28960;SDS011;16068;42.896;20.868;2022-09-01T03:43:47;17.88;;;11.80;;
28960;SDS011;16068;42.896;20.868;2022-09-01T03:46:33;13.93;;;11.57;;
28960;SDS011;16068;42.896;20.868;2022-09-01T03:49:23;17.17;;;12.15;;
28960;SDS011;16068;42.896;20.868;2022-09-01T03:52:14;13.93;;;10.77;;
28960;SDS011;16068;42.896;20.868;2022-09-01T03:55:01;14.07;;;11.30;;
28960;SDS011;16068;42.896;20.868;2022-09-01T03:57:51;14.38;;;11.30;;
28960;SDS011;16068;42.896;20.868;2022-09-01T04:00:40;21.88;;;12.38;;
28960;SDS011;16068;42.896;20.868;2022-09-01T04:03:36;22.30;;;12.32;;
28960;SDS011;16068;42.896;20.868;2022-09-01T04:06:24;26.98;;;13.45;;
28960;SDS011;16068;42.896;20.868;2022-09-01T04:09:11;25.25;;;12.48;;
28960;SDS011;16068;42.896;20.868;2022-09-01T04:12:00;21.90;;;12.35;;
28960;SDS011;16068;42.896;20.868;2022-09-01T04:14:51;21.42;;;12.20;;
28960;SDS011;16068;42.896;20.868;2022-09-01T04:17:37;16.92;;;11.52;;
28960;SDS011;16068;42.896;20.868;2022-09-01T04:20:42;16.42;;;12.63;;
28960;SDS011;16068;42.896;20.868;2022-09-01T04:23:34;25.30;;;12.25;;
28960;SDS011;16068;42.896;20.868;2022-09-01T04:26:25;16.90;;;11.45;;
28960;SDS011;16068;42.896;20.868;2022-09-01T04:29:12;15.68;;;11.02;;
28960;SDS011;16068;42.896;20.868;2022-09-01T04:32:00;21.17;;;12.25;;
28960;SDS011;16068;42.896;20.868;2022-09-01T04:34:50;18.42;;;11.52;;
28960;SDS011;16068;42.896;20.868;2022-09-01T04:37:36;15.32;;;10.35;;
28960;SDS011;16068;42.896;20.868;2022-09-01T04:40:24;21.02;;;11.73;;
28960;SDS011;16068;42.896;20.868;2022-09-01T04:43:12;14.90;;;11.07;;
28960;SDS011;16068;42.896;20.868;2022-09-01T04:45:58;20.30;;;11.65;;
28960;SDS011;16068;42.896;20.868;2022-09-01T04:48:46;22.17;;;11.30;;
28960;SDS011;16068;42.896;20.868;2022-09-01T04:51:36;13.43;;;10.27;;
28960;SDS011;16068;42.896;20.868;2022-09-01T04:54:29;22.13;;;11.18;;
28960;SDS011;16068;42.896;20.868;2022-09-01T04:57:20;20.80;;;11.60;;
28960;SDS011;16068;42.896;20.868;2022-09-01T05:00:06;15.32;;;11.32;;
28960;SDS011;16068;42.896;20.868;2022-09-01T05:03:07;15.82;;;11.05;;
28960;SDS011;16068;42.896;20.868;2022-09-01T05:06:17;16.92;;;11.20;;
28960;SDS011;16068;42.896;20.868;2022-09-01T05:09:10;13.90;;;11.05;;
28960;SDS011;16068;42.896;20.868;2022-09-01T05:12:19;12.57;;;10.77;;
28960;SDS011;16068;42.896;20.868;2022-09-01T05:15:06;19.15;;;12.20;;
28960;SDS011;16068;42.896;20.868;2022-09-01T05:17:53;19.15;;;12.20;;
28960;SDS011;16068;42.896;20.868;2022-09-01T05:20:41;22.58;;;11.88;;
28960;SDS011;16068;42.896;20.868;2022-09-01T05:23:27;16.02;;;11.20;;
28960;SDS011;16068;42.896;20.868;2022-09-01T05:26:16;16.20;;;11.35;;
28960;SDS011;16068;42.896;20.868;2022-09-01T05:29:04;25.10;;;12.32;;
28960;SDS011;16068;42.896;20.868;2022-09-01T05:31:56;20.52;;;11.68;;
28960;SDS011;16068;42.896;20.868;2022-09-01T05:34:43;29.25;;;12.63;;
28960;SDS011;16068;42.896;20.868;2022-09-01T05:37:31;23.92;;;11.55;;
28960;SDS011;16068;42.896;20.868;2022-09-01T05:40:19;19.27;;;12.32;;
28960;SDS011;16068;42.896;20.868;2022-09-01T05:43:06;18.17;;;12.30;;
28960;SDS011;16068;42.896;20.868;2022-09-01T05:45:57;30.05;;;14.40;;
28960;SDS011;16068;42.896;20.868;2022-09-01T05:48:54;16.15;;;11.20;;
28960;SDS011;16068;42.896;20.868;2022-09-01T05:51:42;19.80;;;11.25;;
28960;SDS011;16068;42.896;20.868;2022-09-01T05:54:37;18.55;;;12.18;;
28960;SDS011;16068;42.896;20.868;2022-09-01T05:57:25;17.80;;;13.05;;
28960;SDS011;16068;42.896;20.868;2022-09-01T06:00:23;15.10;;;10.55;;
28960;SDS011;16068;42.896;20.868;2022-09-01T06:03:09;16.35;;;11.90;;
28960;SDS011;16068;42.896;20.868;2022-09-01T06:06:03;11.77;;;9.68;;
28960;SDS011;16068;42.896;20.868;2022-09-01T06:08:55;16.75;;;10.02;;
28960;SDS011;16068;42.896;20.868;2022-09-01T06:11:45;14.68;;;10.20;;
28960;SDS011;16068;42.896;20.868;2022-09-01T06:14:31;13.50;;;9.43;;
28960;SDS011;16068;42.896;20.868;2022-09-01T06:17:19;13.45;;;10.32;;
28960;SDS011;16068;42.896;20.868;2022-09-01T06:20:12;11.50;;;9.65;;
28960;SDS011;16068;42.896;20.868;2022-09-01T06:23:00;12.00;;;10.25;;
28960;SDS011;16068;42.896;20.868;2022-09-01T06:25:47;15.45;;;9.82;;
28960;SDS011;16068;42.896;20.868;2022-09-01T06:28:37;14.75;;;10.95;;
28960;SDS011;16068;42.896;20.868;2022-09-01T06:31:26;17.48;;;10.55;;
28960;SDS011;16068;42.896;20.868;2022-09-01T06:34:24;12.23;;;10.13;;
28960;SDS011;16068;42.896;20.868;2022-09-01T06:37:10;13.55;;;10.48;;
28960;SDS011;16068;42.896;20.868;2022-09-01T06:40:00;13.63;;;11.20;;
28960;SDS011;16068;42.896;20.868;2022-09-01T06:42:49;15.32;;;11.05;;
28960;SDS011;16068;42.896;20.868;2022-09-01T06:45:42;13.32;;;11.25;;
28960;SDS011;16068;42.896;20.868;2022-09-01T06:48:42;13.20;;;10.07;;
28960;SDS011;16068;42.896;20.868;2022-09-01T06:51:31;10.98;;;9.88;;
28960;SDS011;16068;42.896;20.868;2022-09-01T06:54:18;12.25;;;10.32;;
28960;SDS011;16068;42.896;20.868;2022-09-01T06:57:06;16.52;;;11.30;;
28960;SDS011;16068;42.896;20.868;2022-09-01T07:00:13;16.83;;;12.23;;
28960;SDS011;16068;42.896;20.868;2022-09-01T07:03:07;24.13;;;12.93;;
28960;SDS011;16068;42.896;20.868;2022-09-01T07:06:13;17.88;;;10.98;;
28960;SDS011;16068;42.896;20.868;2022-09-01T07:09:42;19.30;;;11.38;;
28960;SDS011;16068;42.896;20.868;2022-09-01T07:12:56;19.60;;;11.57;;
28960;SDS011;16068;42.896;20.868;2022-09-01T07:15:54;38.45;;;11.68;;
28960;SDS011;16068;42.896;20.868;2022-09-01T07:19:04;16.80;;;11.98;;
28960;SDS011;16068;42.896;20.868;2022-09-01T07:21:52;23.63;;;12.38;;
28960;SDS011;16068;42.896;20.868;2022-09-01T07:25:03;16.35;;;11.43;;
28960;SDS011;16068;42.896;20.868;2022-09-01T07:28:12;18.83;;;10.93;;
28960;SDS011;16068;42.896;20.868;2022-09-01T07:31:20;23.48;;;12.07;;
28960;SDS011;16068;42.896;20.868;2022-09-01T07:34:28;31.20;;;16.42;;
28960;SDS011;16068;42.896;20.868;2022-09-01T07:37:26;25.55;;;17.10;;
28960;SDS011;16068;42.896;20.868;2022-09-01T07:40:37;23.20;;;18.60;;
28960;SDS011;16068;42.896;20.868;2022-09-01T07:44:13;29.58;;;20.67;;
28960;SDS011;16068;42.896;20.868;2022-09-01T07:47:17;22.80;;;18.85;;
28960;SDS011;16068;42.896;20.868;2022-09-01T07:50:25;23.25;;;14.30;;
28960;SDS011;16068;42.896;20.868;2022-09-01T07:53:34;25.25;;;17.67;;
28960;SDS011;16068;42.896;20.868;2022-09-01T07:56:23;26.27;;;19.73;;
28960;SDS011;16068;42.896;20.868;2022-09-01T07:59:10;34.00;;;20.45;;
28960;SDS011;16068;42.896;20.868;2022-09-01T08:02:20;29.73;;;19.45;;
28960;SDS011;16068;42.896;20.868;2022-09-01T08:05:11;24.90;;;17.48;;
28960;SDS011;16068;42.896;20.868;2022-09-01T08:08:01;21.50;;;17.15;;
28960;SDS011;16068;42.896;20.868;2022-09-01T08:10:50;29.30;;;18.38;;
28960;SDS011;16068;42.896;20.868;2022-09-01T08:13:36;18.92;;;15.50;;
28960;SDS011;16068;42.896;20.868;2022-09-01T08:16:28;20.23;;;16.00;;
28960;SDS011;16068;42.896;20.868;2022-09-01T08:19:28;17.75;;;15.82;;
28960;SDS011;16068;42.896;20.868;2022-09-01T08:22:27;21.88;;;16.83;;
28960;SDS011;16068;42.896;20.868;2022-09-01T08:25:21;22.40;;;17.38;;
28960;SDS011;16068;42.896;20.868;2022-09-01T08:28:12;24.08;;;16.33;;
28960;SDS011;16068;42.896;20.868;2022-09-01T08:31:08;22.13;;;16.40;;
28960;SDS011;16068;42.896;20.868;2022-09-01T08:33:57;23.27;;;15.60;;
28960;SDS011;16068;42.896;20.868;2022-09-01T08:36:46;33.65;;;16.23;;
28960;SDS011;16068;42.896;20.868;2022-09-01T08:39:32;27.08;;;13.98;;
28960;SDS011;16068;42.896;20.868;2022-09-01T08:42:40;24.52;;;15.43;;
28960;SDS011;16068;42.896;20.868;2022-09-01T08:45:53;22.65;;;14.77;;
28960;SDS011;16068;42.896;20.868;2022-09-01T08:55:31;16.48;;;14.48;;
28960;SDS011;16068;42.896;20.868;2022-09-01T08:58:27;22.98;;;15.73;;
28960;SDS011;16068;42.896;20.868;2022-09-01T09:01:37;24.67;;;15.95;;
28960;SDS011;16068;42.896;20.868;2022-09-01T10:13:48;16.75;;;12.07;;
28960;SDS011;16068;42.896;20.868;2022-09-01T10:16:38;19.88;;;11.95;;
28960;SDS011;16068;42.896;20.868;2022-09-01T10:19:27;15.43;;;11.68;;
28960;SDS011;16068;42.896;20.868;2022-09-01T10:22:22;16.92;;;11.30;;
28960;SDS011;16068;42.896;20.868;2022-09-01T10:25:11;16.02;;;11.65;;
28960;SDS011;16068;42.896;20.868;2022-09-01T10:28:08;15.30;;;11.93;;
28960;SDS011;16068;42.896;20.868;2022-09-01T10:31:05;13.48;;;11.07;;
28960;SDS011;16068;42.896;20.868;2022-09-01T10:33:54;19.17;;;11.85;;
28960;SDS011;16068;42.896;20.868;2022-09-01T10:36:43;20.80;;;11.73;;
28960;SDS011;16068;42.896;20.868;2022-09-01T10:39:31;19.35;;;11.48;;
28960;SDS011;16068;42.896;20.868;2022-09-01T10:42:29;13.60;;;9.65;;
28960;SDS011;16068;42.896;20.868;2022-09-01T10:45:19;13.82;;;10.20;;
28960;SDS011;16068;42.896;20.868;2022-09-01T10:54:06;11.10;;;9.50;;
28960;SDS011;16068;42.896;20.868;2022-09-01T10:56:52;11.95;;;9.30;;
28960;SDS011;16068;42.896;20.868;2022-09-01T10:59:38;11.27;;;9.25;;
28960;SDS011;16068;42.896;20.868;2022-09-01T11:02:35;15.90;;;9.65;;
28960;SDS011;16068;42.896;20.868;2022-09-01T11:11:48;11.32;;;9.13;;
28960;SDS011;16068;42.896;20.868;2022-09-01T11:17:53;20.10;;;9.85;;
28960;SDS011;16068;42.896;20.868;2022-09-01T11:20:41;14.45;;;9.32;;
28960;SDS011;16068;42.896;20.868;2022-09-01T11:23:30;13.65;;;10.00;;
28960;SDS011;16068;42.896;20.868;2022-09-01T11:32:42;16.45;;;10.43;;
28960;SDS011;16068;42.896;20.868;2022-09-01T11:35:31;13.65;;;9.07;;
28960;SDS011;16068;42.896;20.868;2022-09-01T11:38:18;13.25;;;9.82;;
28960;SDS011;16068;42.896;20.868;2022-09-01T11:41:04;17.63;;;9.70;;
28960;SDS011;16068;42.896;20.868;2022-09-01T11:43:51;14.65;;;9.82;;
28960;SDS011;16068;42.896;20.868;2022-09-01T11:46:42;15.10;;;9.85;;
28960;SDS011;16068;42.896;20.868;2022-09-01T11:49:39;20.63;;;10.32;;
28960;SDS011;16068;42.896;20.868;2022-09-01T11:52:33;12.85;;;9.30;;
28960;SDS011;16068;42.896;20.868;2022-09-01T11:55:28;12.77;;;9.10;;
28960;SDS011;16068;42.896;20.868;2022-09-01T12:04:21;12.10;;;8.57;;
28960;SDS011;16068;42.896;20.868;2022-09-01T12:07:12;11.75;;;8.63;;
28960;SDS011;16068;42.896;20.868;2022-09-01T12:09:59;13.07;;;8.32;;
28960;SDS011;16068;42.896;20.868;2022-09-01T12:12:46;12.15;;;9.00;;
28960;SDS011;16068;42.896;20.868;2022-09-01T12:15:33;11.52;;;8.25;;
28960;SDS011;16068;42.896;20.868;2022-09-01T12:18:22;11.90;;;8.50;;
28960;SDS011;16068;42.896;20.868;2022-09-01T12:21:20;10.18;;;8.77;;
28960;SDS011;16068;42.896;20.868;2022-09-01T12:24:20;11.00;;;8.45;;
28960;SDS011;16068;42.896;20.868;2022-09-01T12:27:08;10.63;;;9.23;;
28960;SDS011;16068;42.896;20.868;2022-09-01T12:29:54;13.73;;;8.30;;
28960;SDS011;16068;42.896;20.868;2022-09-01T12:32:41;10.73;;;8.18;;
28960;SDS011;16068;42.896;20.868;2022-09-01T12:35:27;12.68;;;9.02;;
28960;SDS011;16068;42.896;20.868;2022-09-01T12:41:21;13.80;;;8.40;;
28960;SDS011;16068;42.896;20.868;2022-09-01T12:50:35;13.75;;;8.07;;
28960;SDS011;16068;42.896;20.868;2022-09-01T12:53:22;9.57;;;7.30;;
28960;SDS011;16068;42.896;20.868;2022-09-01T12:56:17;11.38;;;8.05;;
28960;SDS011;16068;42.896;20.868;2022-09-01T13:05:26;12.98;;;8.65;;
28960;SDS011;16068;42.896;20.868;2022-09-01T13:08:29;11.52;;;7.32;;
28960;SDS011;16068;42.896;20.868;2022-09-01T13:11:25;13.63;;;7.40;;
28960;SDS011;16068;42.896;20.868;2022-09-01T13:14:30;18.60;;;7.47;;
28960;SDS011;16068;42.896;20.868;2022-09-01T13:17:18;12.38;;;6.50;;
28960;SDS011;16068;42.896;20.868;2022-09-01T13:24:12;9.95;;;6.75;;
28960;SDS011;16068;42.896;20.868;2022-09-01T13:26:59;9.77;;;6.93;;
28960;SDS011;16068;42.896;20.868;2022-09-01T13:30:07;9.88;;;6.72;;
28960;SDS011;16068;42.896;20.868;2022-09-01T13:32:54;13.10;;;7.43;;
28960;SDS011;16068;42.896;20.868;2022-09-01T13:36:05;13.07;;;8.20;;
28960;SDS011;16068;42.896;20.868;2022-09-01T13:39:16;10.40;;;8.02;;
28960;SDS011;16068;42.896;20.868;2022-09-01T13:42:03;25.15;;;17.33;;
28960;SDS011;16068;42.896;20.868;2022-09-01T13:44:49;11.93;;;9.10;;
28960;SDS011;16068;42.896;20.868;2022-09-01T13:47:40;10.82;;;8.02;;
28960;SDS011;16068;42.896;20.868;2022-09-01T13:50:48;9.18;;;7.18;;
28960;SDS011;16068;42.896;20.868;2022-09-01T13:54:10;11.45;;;8.45;;
28960;SDS011;16068;42.896;20.868;2022-09-01T13:56:56;14.82;;;8.75;;
28960;SDS011;16068;42.896;20.868;2022-09-01T13:59:41;11.50;;;8.68;;
28960;SDS011;16068;42.896;20.868;2022-09-01T14:02:28;12.45;;;8.70;;
28960;SDS011;16068;42.896;20.868;2022-09-01T14:05:18;13.38;;;7.72;;
28960;SDS011;16068;42.896;20.868;2022-09-01T14:08:05;11.35;;;7.97;;
28960;SDS011;16068;42.896;20.868;2022-09-01T14:10:52;10.65;;;7.55;;
28960;SDS011;16068;42.896;20.868;2022-09-01T14:13:38;13.88;;;8.00;;
28960;SDS011;16068;42.896;20.868;2022-09-01T14:16:24;16.67;;;8.13;;
28960;SDS011;16068;42.896;20.868;2022-09-01T14:19:11;15.40;;;8.32;;
28960;SDS011;16068;42.896;20.868;2022-09-01T14:21:57;10.85;;;8.10;;
28960;SDS011;16068;42.896;20.868;2022-09-01T14:24:43;12.05;;;8.38;;
28960;SDS011;16068;42.896;20.868;2022-09-01T14:27:29;17.40;;;10.65;;
28960;SDS011;16068;42.896;20.868;2022-09-01T14:30:18;9.32;;;7.47;;
28960;SDS011;16068;42.896;20.868;2022-09-01T14:33:05;15.25;;;8.60;;
28960;SDS011;16068;42.896;20.868;2022-09-01T14:35:52;15.70;;;8.85;;
28960;SDS011;16068;42.896;20.868;2022-09-01T14:38:38;15.80;;;8.80;;
28960;SDS011;16068;42.896;20.868;2022-09-01T14:41:24;13.95;;;9.38;;
28960;SDS011;16068;42.896;20.868;2022-09-01T14:44:11;21.88;;;9.88;;
28960;SDS011;16068;42.896;20.868;2022-09-01T14:46:57;10.23;;;8.20;;
28960;SDS011;16068;42.896;20.868;2022-09-01T14:49:43;17.23;;;8.15;;
28960;SDS011;16068;42.896;20.868;2022-09-01T14:52:29;16.35;;;8.40;;
28960;SDS011;16068;42.896;20.868;2022-09-01T14:55:16;13.75;;;8.18;;
28960;SDS011;16068;42.896;20.868;2022-09-01T14:58:02;12.13;;;8.23;;
28960;SDS011;16068;42.896;20.868;2022-09-01T15:00:52;15.50;;;8.73;;
28960;SDS011;16068;42.896;20.868;2022-09-01T15:04:07;14.90;;;8.27;;
28960;SDS011;16068;42.896;20.868;2022-09-01T15:06:55;16.30;;;8.60;;
28960;SDS011;16068;42.896;20.868;2022-09-01T15:09:41;13.88;;;8.40;;
28960;SDS011;16068;42.896;20.868;2022-09-01T15:12:27;10.50;;;8.25;;
28960;SDS011;16068;42.896;20.868;2022-09-01T15:15:15;15.23;;;9.20;;
28960;SDS011;16068;42.896;20.868;2022-09-01T15:18:02;14.25;;;9.05;;
28960;SDS011;16068;42.896;20.868;2022-09-01T15:20:48;11.50;;;9.07;;
28960;SDS011;16068;42.896;20.868;2022-09-01T15:23:35;13.98;;;9.23;;
28960;SDS011;16068;42.896;20.868;2022-09-01T15:26:21;18.98;;;9.18;;
28960;SDS011;16068;42.896;20.868;2022-09-01T15:29:07;41.85;;;9.85;;
28960;SDS011;16068;42.896;20.868;2022-09-01T15:31:56;155.48;;;13.55;;
28960;SDS011;16068;42.896;20.868;2022-09-01T15:34:42;39.55;;;6.28;;
28960;SDS011;16068;42.896;20.868;2022-09-01T15:37:28;21.70;;;8.38;;
28960;SDS011;16068;42.896;20.868;2022-09-01T15:40:14;19.98;;;9.88;;
28960;SDS011;16068;42.896;20.868;2022-09-01T15:43:02;18.98;;;9.30;;
28960;SDS011;16068;42.896;20.868;2022-09-01T15:45:49;13.00;;;8.20;;
28960;SDS011;16068;42.896;20.868;2022-09-01T15:48:35;17.95;;;10.43;;
28960;SDS011;16068;42.896;20.868;2022-09-01T15:54:14;14.95;;;11.48;;
28960;SDS011;16068;42.896;20.868;2022-09-01T15:57:01;26.42;;;14.10;;
28960;SDS011;16068;42.896;20.868;2022-09-01T15:59:48;15.65;;;10.63;;
28960;SDS011;16068;42.896;20.868;2022-09-01T16:02:34;14.65;;;10.35;;
28960;SDS011;16068;42.896;20.868;2022-09-01T16:05:20;16.60;;;10.85;;
28960;SDS011;16068;42.896;20.868;2022-09-01T16:08:06;18.08;;;11.80;;
28960;SDS011;16068;42.896;20.868;2022-09-01T16:10:54;18.90;;;13.20;;
28960;SDS011;16068;42.896;20.868;2022-09-01T16:13:41;21.60;;;14.00;;
28960;SDS011;16068;42.896;20.868;2022-09-01T16:19:41;17.63;;;12.88;;
28960;SDS011;16068;42.896;20.868;2022-09-01T16:22:54;12.63;;;9.90;;
28960;SDS011;16068;42.896;20.868;2022-09-01T16:25:44;16.35;;;9.30;;
28960;SDS011;16068;42.896;20.868;2022-09-01T16:28:34;14.35;;;10.77;;
28960;SDS011;16068;42.896;20.868;2022-09-01T16:31:23;16.42;;;11.98;;
28960;SDS011;16068;42.896;20.868;2022-09-01T16:34:14;16.60;;;12.73;;
28960;SDS011;16068;42.896;20.868;2022-09-01T16:37:12;55.55;;;41.03;;
28960;SDS011;16068;42.896;20.868;2022-09-01T16:45:53;97.88;;;76.65;;
28960;SDS011;16068;42.896;20.868;2022-09-01T16:51:45;48.45;;;39.13;;
28960;SDS011;16068;42.896;20.868;2022-09-01T16:58:18;16.48;;;10.55;;
28960;SDS011;16068;42.896;20.868;2022-09-01T17:06:55;12.73;;;8.23;;
28960;SDS011;16068;42.896;20.868;2022-09-01T17:13:18;11.98;;;6.50;;
28960;SDS011;16068;42.896;20.868;2022-09-01T17:19:16;9.25;;;6.18;;
28960;SDS011;16068;42.896;20.868;2022-09-01T17:22:05;10.85;;;6.82;;
28960;SDS011;16068;42.896;20.868;2022-09-01T17:24:55;42.45;;;32.00;;
28960;SDS011;16068;42.896;20.868;2022-09-01T17:30:40;30.67;;;22.55;;
28960;SDS011;16068;42.896;20.868;2022-09-01T17:33:39;14.73;;;12.50;;
28960;SDS011;16068;42.896;20.868;2022-09-01T17:48:53;13.57;;;9.00;;
28960;SDS011;16068;42.896;20.868;2022-09-01T17:51:55;10.65;;;7.15;;
28960;SDS011;16068;42.896;20.868;2022-09-01T17:55:05;7.43;;;5.57;;
28960;SDS011;16068;42.896;20.868;2022-09-01T17:57:56;9.00;;;6.93;;
28960;SDS011;16068;42.896;20.868;2022-09-01T18:00:49;7.60;;;5.70;;
28960;SDS011;16068;42.896;20.868;2022-09-01T18:10:08;5.13;;;3.70;;
28960;SDS011;16068;42.896;20.868;2022-09-01T18:13:02;4.80;;;2.97;;
28960;SDS011;16068;42.896;20.868;2022-09-01T18:15:51;6.70;;;2.50;;
28960;SDS011;16068;42.896;20.868;2022-09-01T18:18:50;4.70;;;2.60;;
28960;SDS011;16068;42.896;20.868;2022-09-01T18:21:39;8.48;;;3.72;;
28960;SDS011;16068;42.896;20.868;2022-09-01T18:24:46;8.48;;;4.03;;
28960;SDS011;16068;42.896;20.868;2022-09-01T18:27:38;8.88;;;2.80;;
28960;SDS011;16068;42.896;20.868;2022-09-01T18:30:27;5.15;;;2.38;;
28960;SDS011;16068;42.896;20.868;2022-09-01T18:39:58;7.05;;;3.10;;
28960;SDS011;16068;42.896;20.868;2022-09-01T18:43:51;10.65;;;3.20;;
28960;SDS011;16068;42.896;20.868;2022-09-01T18:55:49;2.88;;;2.03;;
28960;SDS011;16068;42.896;20.868;2022-09-01T18:59:00;2.88;;;1.90;;
28960;SDS011;16068;42.896;20.868;2022-09-01T19:20:50;3.03;;;1.77;;
28960;SDS011;16068;42.896;20.868;2022-09-01T19:23:43;5.28;;;2.30;;
28960;SDS011;16068;42.896;20.868;2022-09-01T19:26:42;3.90;;;1.75;;
28960;SDS011;16068;42.896;20.868;2022-09-01T19:29:35;2.58;;;1.75;;
28960;SDS011;16068;42.896;20.868;2022-09-01T19:32:29;2.28;;;1.25;;
28960;SDS011;16068;42.896;20.868;2022-09-01T19:35:16;7.75;;;2.13;;
28960;SDS011;16068;42.896;20.868;2022-09-01T19:38:06;3.03;;;1.60;;
28960;SDS011;16068;42.896;20.868;2022-09-01T19:41:11;2.30;;;1.55;;
28960;SDS011;16068;42.896;20.868;2022-09-01T19:44:06;3.63;;;2.20;;
28960;SDS011;16068;42.896;20.868;2022-09-01T19:47:05;3.22;;;2.00;;
28960;SDS011;16068;42.896;20.868;2022-09-01T19:53:10;4.07;;;2.63;;
28960;SDS011;16068;42.896;20.868;2022-09-01T19:56:13;2.60;;;1.52;;
28960;SDS011;16068;42.896;20.868;2022-09-01T19:59:11;2.83;;;1.67;;
28960;SDS011;16068;42.896;20.868;2022-09-01T20:18:17;1.70;;;1.33;;
28960;SDS011;16068;42.896;20.868;2022-09-01T20:20:43;2.25;;;1.60;;
28960;SDS011;16068;42.896;20.868;2022-09-01T20:26:31;2.40;;;1.80;;
28960;SDS011;16068;42.896;20.868;2022-09-01T20:39:22;3.00;;;1.67;;
28960;SDS011;16068;42.896;20.868;2022-09-01T20:45:58;2.20;;;2.00;;
28960;SDS011;16068;42.896;20.868;2022-09-01T20:48:44;2.45;;;1.55;;
28960;SDS011;16068;42.896;20.868;2022-09-01T20:51:40;2.15;;;1.60;;
28960;SDS011;16068;42.896;20.868;2022-09-01T20:54:31;2.78;;;1.88;;